sensor_id;sensor_type;location;lat;lon;timestamp;pressure;altitude;pressure_sealevel;temperature;humidity
48964;BME280;34776;48.180;16.420;2022-09-27T00:00:38;98465.13;;;13.50;83.12
48964;BME280;34776;48.180;16.420;2022-09-27T00:03:05;98467.31;;;13.45;83.57
48964;BME280;34776;48.180;16.420;2022-09-27T00:05:31;98467.59;;;13.42;83.46
48964;BME280;34776;48.180;16.420;2022-09-27T00:07:56;98466.47;;;13.45;83.31
48964;BME280;34776;48.180;16.420;2022-09-27T00:10:22;98460.16;;;13.46;83.44
48964;BME280;34776;48.180;16.420;2022-09-27T00:12:48;98460.53;;;13.41;83.62
48964;BME280;34776;48.180;16.420;2022-09-27T00:15:13;98455.72;;;13.35;83.43
48964;BME280;34776;48.180;16.420;2022-09-27T00:17:39;98453.06;;;13.35;83.89
48964;BME280;34776;48.180;16.420;2022-09-27T00:20:06;98454.38;;;13.40;83.60
48964;BME280;34776;48.180;16.420;2022-09-27T00:22:32;98449.88;;;13.41;83.53
48964;BME280;34776;48.180;16.420;2022-09-27T00:24:58;98456.19;;;13.40;83.46
48964;BME280;34776;48.180;16.420;2022-09-27T00:27:25;98453.78;;;13.37;83.22
48964;BME280;34776;48.180;16.420;2022-09-27T00:29:50;98450.16;;;13.38;83.48
48964;BME280;34776;48.180;16.420;2022-09-27T00:32:16;98449.63;;;13.44;83.27
48964;BME280;34776;48.180;16.420;2022-09-27T00:34:42;98447.69;;;13.46;82.98
48964;BME280;34776;48.180;16.420;2022-09-27T00:37:09;98436.66;;;13.39;83.21
48964;BME280;34776;48.180;16.420;2022-09-27T00:39:36;98431.28;;;13.30;83.54
48964;BME280;34776;48.180;16.420;2022-09-27T00:42:04;98426.66;;;13.20;83.79
48964;BME280;34776;48.180;16.420;2022-09-27T00:47:23;98420.47;;;12.99;84.74
48964;BME280;34776;48.180;16.420;2022-09-27T00:52:49;98408.94;;;12.77;85.48
48964;BME280;34776;48.180;16.420;2022-09-27T00:55:23;98396.13;;;12.71;86.32
48964;BME280;34776;48.180;16.420;2022-09-27T00:57:50;98395.41;;;12.69;85.78
48964;BME280;34776;48.180;16.420;2022-09-27T01:00:16;98400.00;;;12.67;85.87
48964;BME280;34776;48.180;16.420;2022-09-27T01:02:48;98407.28;;;12.65;86.08
48964;BME280;34776;48.180;16.420;2022-09-27T01:05:15;98408.00;;;12.67;85.72
48964;BME280;34776;48.180;16.420;2022-09-27T01:07:42;98400.00;;;12.67;85.93
48964;BME280;34776;48.180;16.420;2022-09-27T01:10:08;98395.66;;;12.66;85.83
48964;BME280;34776;48.180;16.420;2022-09-27T01:13:00;98393.97;;;12.65;85.80
48964;BME280;34776;48.180;16.420;2022-09-27T01:15:39;98384.78;;;12.58;87.46
48964;BME280;34776;48.180;16.420;2022-09-27T01:34:44;98358.00;;;12.27;87.83
48964;BME280;34776;48.180;16.420;2022-09-27T01:47:41;98341.56;;;12.11;88.33
48964;BME280;34776;48.180;16.420;2022-09-27T01:50:12;98340.13;;;12.07;88.44
48964;BME280;34776;48.180;16.420;2022-09-27T01:53:04;98335.91;;;12.04;88.50
48964;BME280;34776;48.180;16.420;2022-09-27T01:55:31;98343.78;;;12.06;88.58
48964;BME280;34776;48.180;16.420;2022-09-27T01:58:21;98337.72;;;12.04;88.33
48964;BME280;34776;48.180;16.420;2022-09-27T02:00:50;98338.69;;;12.03;88.17
48964;BME280;34776;48.180;16.420;2022-09-27T02:03:20;98329.03;;;12.02;88.34
48964;BME280;34776;48.180;16.420;2022-09-27T02:05:50;98331.69;;;12.02;88.49
48964;BME280;34776;48.180;16.420;2022-09-27T02:08:25;98329.25;;;11.98;88.25
48964;BME280;34776;48.180;16.420;2022-09-27T02:10:55;98330.47;;;11.94;88.36
48964;BME280;34776;48.180;16.420;2022-09-27T02:13:39;98315.59;;;11.92;88.35
48964;BME280;34776;48.180;16.420;2022-09-27T02:16:22;98322.84;;;11.90;88.85
48964;BME280;34776;48.180;16.420;2022-09-27T02:19:11;98320.31;;;11.88;88.70
48964;BME280;34776;48.180;16.420;2022-09-27T02:25:05;98321.75;;;11.92;88.83
48964;BME280;34776;48.180;16.420;2022-09-27T02:30:07;98318.13;;;11.93;88.55
48964;BME280;34776;48.180;16.420;2022-09-27T02:32:35;98325.41;;;11.91;89.38
48964;BME280;34776;48.180;16.420;2022-09-27T02:35:06;98322.97;;;11.88;89.45
48964;BME280;34776;48.180;16.420;2022-09-27T02:37:33;98325.88;;;11.85;89.98
48964;BME280;34776;48.180;16.420;2022-09-27T02:39:59;98325.88;;;11.85;89.87
48964;BME280;34776;48.180;16.420;2022-09-27T02:42:25;98325.03;;;11.85;89.95
48964;BME280;34776;48.180;16.420;2022-09-27T02:44:51;98320.53;;;11.85;89.78
48964;BME280;34776;48.180;16.420;2022-09-27T02:50:20;98320.19;;;11.90;89.64
48964;BME280;34776;48.180;16.420;2022-09-27T02:53:09;98319.69;;;11.96;89.52
48964;BME280;34776;48.180;16.420;2022-09-27T02:55:53;98321.25;;;11.98;89.59
48964;BME280;34776;48.180;16.420;2022-09-27T02:58:47;98322.72;;;12.03;89.39
48964;BME280;34776;48.180;16.420;2022-09-27T03:04:52;98314.22;;;12.20;89.11
48964;BME280;34776;48.180;16.420;2022-09-27T03:07:20;98312.00;;;12.25;88.80
48964;BME280;34776;48.180;16.420;2022-09-27T03:09:49;98313.44;;;12.29;88.42
48964;BME280;34776;48.180;16.420;2022-09-27T03:12:18;98306.28;;;12.30;88.49
48964;BME280;34776;48.180;16.420;2022-09-27T03:14:46;98307.84;;;12.32;88.55
48964;BME280;34776;48.180;16.420;2022-09-27T03:17:12;98298.06;;;12.33;88.41
48964;BME280;34776;48.180;16.420;2022-09-27T03:19:37;98296.97;;;12.35;88.37
48964;BME280;34776;48.180;16.420;2022-09-27T03:22:03;98295.84;;;12.38;88.35
48964;BME280;34776;48.180;16.420;2022-09-27T03:24:28;98288.97;;;12.35;88.55
48964;BME280;34776;48.180;16.420;2022-09-27T03:26:53;98289.09;;;12.34;88.54
48964;BME280;34776;48.180;16.420;2022-09-27T03:29:19;98284.47;;;12.36;88.66
48964;BME280;34776;48.180;16.420;2022-09-27T03:31:45;98287.97;;;12.36;88.75
48964;BME280;34776;48.180;16.420;2022-09-27T03:34:10;98285.78;;;12.42;88.73
48964;BME280;34776;48.180;16.420;2022-09-27T03:36:35;98280.19;;;12.45;88.56
48964;BME280;34776;48.180;16.420;2022-09-27T03:39:01;98276.56;;;12.46;88.41
48964;BME280;34776;48.180;16.420;2022-09-27T03:41:26;98275.34;;;12.50;88.63
48964;BME280;34776;48.180;16.420;2022-09-27T03:43:52;98271.28;;;12.55;88.41
48964;BME280;34776;48.180;16.420;2022-09-27T03:46:17;98275.78;;;12.55;88.02
48964;BME280;34776;48.180;16.420;2022-09-27T03:48:42;98272.41;;;12.53;88.31
48964;BME280;34776;48.180;16.420;2022-09-27T03:51:08;98269.28;;;12.48;88.03
48964;BME280;34776;48.180;16.420;2022-09-27T03:53:36;98255.28;;;12.34;88.79
48964;BME280;34776;48.180;16.420;2022-09-27T03:56:03;98248.91;;;12.26;88.67
48964;BME280;34776;48.180;16.420;2022-09-27T03:58:28;98240.94;;;12.26;88.87
48964;BME280;34776;48.180;16.420;2022-09-27T04:00:53;98239.09;;;12.26;89.01
48964;BME280;34776;48.180;16.420;2022-09-27T04:03:19;98232.63;;;12.19;89.11
48964;BME280;34776;48.180;16.420;2022-09-27T04:05:44;98233.44;;;12.19;89.04
48964;BME280;34776;48.180;16.420;2022-09-27T04:08:10;98234.06;;;12.23;89.02
48964;BME280;34776;48.180;16.420;2022-09-27T04:10:36;98229.56;;;12.24;88.82
48964;BME280;34776;48.180;16.420;2022-09-27T04:13:02;98231.00;;;12.28;89.03
48964;BME280;34776;48.180;16.420;2022-09-27T04:15:28;98232.56;;;12.30;88.47
48964;BME280;34776;48.180;16.420;2022-09-27T04:17:53;98233.03;;;12.35;88.53
48964;BME280;34776;48.180;16.420;2022-09-27T04:20:18;98230.47;;;12.34;88.77
48964;BME280;34776;48.180;16.420;2022-09-27T04:22:44;98229.38;;;12.36;88.73
48964;BME280;34776;48.180;16.420;2022-09-27T04:25:10;98224.91;;;12.37;88.78
48964;BME280;34776;48.180;16.420;2022-09-27T04:27:36;98226.00;;;12.34;88.95
48964;BME280;34776;48.180;16.420;2022-09-27T04:30:03;98224.31;;;12.33;89.30
48964;BME280;34776;48.180;16.420;2022-09-27T04:32:30;98226.88;;;12.35;88.98
48964;BME280;34776;48.180;16.420;2022-09-27T04:34:56;98237.56;;;12.45;88.85
48964;BME280;34776;48.180;16.420;2022-09-27T04:37:40;98235.63;;;12.47;88.71
48964;BME280;34776;48.180;16.420;2022-09-27T04:40:06;98235.38;;;12.50;88.90
48964;BME280;34776;48.180;16.420;2022-09-27T04:42:31;98226.72;;;12.57;88.60
48964;BME280;34776;48.180;16.420;2022-09-27T04:44:58;98234.34;;;12.62;88.50
48964;BME280;34776;48.180;16.420;2022-09-27T04:47:23;98237.44;;;12.67;88.17
48964;BME280;34776;48.180;16.420;2022-09-27T04:49:48;98229.06;;;12.72;87.78
48964;BME280;34776;48.180;16.420;2022-09-27T04:52:14;98224.84;;;12.69;88.24
48964;BME280;34776;48.180;16.420;2022-09-27T04:54:40;98224.56;;;12.72;88.25
48964;BME280;34776;48.180;16.420;2022-09-27T04:57:06;98219.69;;;12.77;88.41
48964;BME280;34776;48.180;16.420;2022-09-27T04:59:32;98218.97;;;12.75;88.59
48964;BME280;34776;48.180;16.420;2022-09-27T05:01:57;98217.03;;;12.77;88.49
48964;BME280;34776;48.180;16.420;2022-09-27T05:04:26;98215.78;;;12.82;88.59
48964;BME280;34776;48.180;16.420;2022-09-27T05:06:52;98221.25;;;12.80;88.97
48964;BME280;34776;48.180;16.420;2022-09-27T05:09:18;98215.09;;;12.79;88.98
48964;BME280;34776;48.180;16.420;2022-09-27T05:11:43;98212.13;;;12.83;88.85
48964;BME280;34776;48.180;16.420;2022-09-27T05:14:09;98211.19;;;12.84;88.87
48964;BME280;34776;48.180;16.420;2022-09-27T05:16:34;98206.44;;;12.87;88.91
48964;BME280;34776;48.180;16.420;2022-09-27T05:19:01;98207.00;;;12.91;88.88
48964;BME280;34776;48.180;16.420;2022-09-27T05:21:27;98202.13;;;12.96;88.49
48964;BME280;34776;48.180;16.420;2022-09-27T05:23:52;98192.72;;;13.02;88.64
48964;BME280;34776;48.180;16.420;2022-09-27T05:26:18;98195.00;;;13.06;88.20
48964;BME280;34776;48.180;16.420;2022-09-27T05:28:45;98192.19;;;13.08;88.37
48964;BME280;34776;48.180;16.420;2022-09-27T05:31:12;98199.81;;;13.12;88.25
48964;BME280;34776;48.180;16.420;2022-09-27T05:33:39;98191.41;;;13.17;88.19
48964;BME280;34776;48.180;16.420;2022-09-27T05:36:04;98191.69;;;13.24;87.86
48964;BME280;34776;48.180;16.420;2022-09-27T05:38:29;98187.06;;;13.26;87.38
48964;BME280;34776;48.180;16.420;2022-09-27T05:40:55;98188.75;;;13.27;87.76
48964;BME280;34776;48.180;16.420;2022-09-27T05:43:20;98178.81;;;13.29;87.68
48964;BME280;34776;48.180;16.420;2022-09-27T05:45:46;98179.78;;;13.28;87.36
48964;BME280;34776;48.180;16.420;2022-09-27T05:48:11;98181.59;;;13.27;87.96
48964;BME280;34776;48.180;16.420;2022-09-27T05:50:39;98179.09;;;13.35;88.10
48964;BME280;34776;48.180;16.420;2022-09-27T05:53:05;98170.31;;;13.45;87.88
48964;BME280;34776;48.180;16.420;2022-09-27T05:55:31;98176.91;;;13.50;87.36
48964;BME280;34776;48.180;16.420;2022-09-27T05:58:01;98176.34;;;13.56;87.36
48964;BME280;34776;48.180;16.420;2022-09-27T06:00:28;98170.75;;;13.59;86.83
48964;BME280;34776;48.180;16.420;2022-09-27T06:02:55;98170.75;;;13.59;86.97
48964;BME280;34776;48.180;16.420;2022-09-27T06:05:21;98170.34;;;13.54;87.18
48964;BME280;34776;48.180;16.420;2022-09-27T06:07:47;98164.53;;;13.49;87.15
48964;BME280;34776;48.180;16.420;2022-09-27T06:10:15;98164.28;;;13.52;87.22
48964;BME280;34776;48.180;16.420;2022-09-27T06:12:40;98163.00;;;13.56;87.23
48964;BME280;34776;48.180;16.420;2022-09-27T06:15:06;98163.88;;;13.57;87.55
48964;BME280;34776;48.180;16.420;2022-09-27T06:17:35;98157.00;;;13.54;87.45
48964;BME280;34776;48.180;16.420;2022-09-27T06:20:02;98160.63;;;13.53;88.00
48964;BME280;34776;48.180;16.420;2022-09-27T06:22:28;98167.38;;;13.57;88.30
48964;BME280;34776;48.180;16.420;2022-09-27T06:24:53;98168.78;;;13.62;88.29
48964;BME280;34776;48.180;16.420;2022-09-27T06:27:19;98167.22;;;13.69;88.04
48964;BME280;34776;48.180;16.420;2022-09-27T06:29:44;98172.72;;;13.77;87.98
48964;BME280;34776;48.180;16.420;2022-09-27T06:32:10;98172.03;;;13.85;87.73
48964;BME280;34776;48.180;16.420;2022-09-27T06:34:36;98168.94;;;13.89;87.70
48964;BME280;34776;48.180;16.420;2022-09-27T06:37:01;98173.03;;;13.93;87.89
48964;BME280;34776;48.180;16.420;2022-09-27T06:39:27;98169.38;;;13.94;87.73
48964;BME280;34776;48.180;16.420;2022-09-27T06:41:53;98178.34;;;13.93;87.88
48964;BME280;34776;48.180;16.420;2022-09-27T06:44:23;98174.13;;;14.10;88.15
48964;BME280;34776;48.180;16.420;2022-09-27T06:46:52;98178.91;;;14.26;87.72
48964;BME280;34776;48.180;16.420;2022-09-27T06:49:20;98169.34;;;14.33;86.87
48964;BME280;34776;48.180;16.420;2022-09-27T06:51:48;98169.19;;;14.25;86.81
48964;BME280;34776;48.180;16.420;2022-09-27T06:54:13;98165.84;;;14.23;87.06
48964;BME280;34776;48.180;16.420;2022-09-27T06:56:39;98170.78;;;14.18;87.26
48964;BME280;34776;48.180;16.420;2022-09-27T06:59:04;98168.53;;;14.04;87.06
48964;BME280;34776;48.180;16.420;2022-09-27T07:01:48;98164.59;;;14.08;88.12
48964;BME280;34776;48.180;16.420;2022-09-27T07:04:16;98165.25;;;14.29;88.38
48964;BME280;34776;48.180;16.420;2022-09-27T07:06:43;98160.88;;;14.48;87.59
48964;BME280;34776;48.180;16.420;2022-09-27T07:09:09;98168.47;;;14.62;86.74
48964;BME280;34776;48.180;16.420;2022-09-27T07:11:34;98165.34;;;14.67;85.89
48964;BME280;34776;48.180;16.420;2022-09-27T07:14:03;98163.53;;;14.67;85.60
48964;BME280;34776;48.180;16.420;2022-09-27T07:16:29;98171.53;;;14.77;85.58
48964;BME280;34776;48.180;16.420;2022-09-27T07:19:01;98174.19;;;14.87;84.93
48964;BME280;34776;48.180;16.420;2022-09-27T07:21:26;98176.78;;;14.96;84.48
48964;BME280;34776;48.180;16.420;2022-09-27T07:23:52;98174.25;;;14.95;84.14
48964;BME280;34776;48.180;16.420;2022-09-27T07:26:17;98181.59;;;14.93;83.80
48964;BME280;34776;48.180;16.420;2022-09-27T07:28:43;98185.25;;;14.92;84.06
48964;BME280;34776;48.180;16.420;2022-09-27T07:31:09;98189.78;;;14.91;83.89
48964;BME280;34776;48.180;16.420;2022-09-27T07:33:35;98186.22;;;14.91;83.93
48964;BME280;34776;48.180;16.420;2022-09-27T07:36:08;98183.88;;;14.88;84.08
48964;BME280;34776;48.180;16.420;2022-09-27T07:38:35;98190.94;;;14.79;84.54
48964;BME280;34776;48.180;16.420;2022-09-27T07:41:12;98185.91;;;14.66;84.12
48964;BME280;34776;48.180;16.420;2022-09-27T07:43:39;98188.44;;;14.48;85.77
48964;BME280;34776;48.180;16.420;2022-09-27T07:46:05;98194.50;;;14.60;85.50
48964;BME280;34776;48.180;16.420;2022-09-27T07:48:32;98200.81;;;14.59;85.71
48964;BME280;34776;48.180;16.420;2022-09-27T07:50:57;98199.38;;;14.55;85.11
48964;BME280;34776;48.180;16.420;2022-09-27T07:53:22;98201.41;;;14.43;85.91
48964;BME280;34776;48.180;16.420;2022-09-27T07:55:49;98198.28;;;14.38;86.19
48964;BME280;34776;48.180;16.420;2022-09-27T07:58:16;98198.28;;;14.38;86.29
48964;BME280;34776;48.180;16.420;2022-09-27T08:00:42;98206.75;;;14.43;86.63
48964;BME280;34776;48.180;16.420;2022-09-27T08:03:13;98196.59;;;14.47;86.91
48964;BME280;34776;48.180;16.420;2022-09-27T08:05:41;98211.66;;;14.48;87.03
48964;BME280;34776;48.180;16.420;2022-09-27T08:08:07;98207.56;;;14.44;86.87
48964;BME280;34776;48.180;16.420;2022-09-27T08:10:33;98212.09;;;14.33;87.30
48964;BME280;34776;48.180;16.420;2022-09-27T08:13:03;98212.38;;;14.30;87.97
48964;BME280;34776;48.180;16.420;2022-09-27T08:15:33;98211.25;;;14.33;88.59
48964;BME280;34776;48.180;16.420;2022-09-27T08:18:05;98220.25;;;14.22;89.48
48964;BME280;34776;48.180;16.420;2022-09-27T08:20:30;98223.34;;;14.08;91.20
48964;BME280;34776;48.180;16.420;2022-09-27T08:22:56;98228.13;;;13.94;92.31
48964;BME280;34776;48.180;16.420;2022-09-27T08:25:21;98236.78;;;13.77;93.40
48964;BME280;34776;48.180;16.420;2022-09-27T08:27:59;98230.91;;;13.73;94.25
48964;BME280;34776;48.180;16.420;2022-09-27T08:30:26;98238.19;;;13.62;93.89
48964;BME280;34776;48.180;16.420;2022-09-27T08:32:56;98248.78;;;13.42;95.15
48964;BME280;34776;48.180;16.420;2022-09-27T08:35:22;98256.41;;;13.26;95.66
48964;BME280;34776;48.180;16.420;2022-09-27T08:37:58;98265.22;;;13.16;96.61
48964;BME280;34776;48.180;16.420;2022-09-27T08:43:51;98277.31;;;12.99;99.73
48964;BME280;34776;48.180;16.420;2022-09-27T08:49:18;98281.72;;;12.79;100.00
48964;BME280;34776;48.180;16.420;2022-09-27T08:51:49;98281.53;;;12.71;100.00
48964;BME280;34776;48.180;16.420;2022-09-27T08:54:21;98286.66;;;12.63;100.00
48964;BME280;34776;48.180;16.420;2022-09-27T08:56:49;98289.22;;;12.53;100.00
48964;BME280;34776;48.180;16.420;2022-09-27T08:59:21;98289.81;;;12.57;100.00
48964;BME280;34776;48.180;16.420;2022-09-27T09:01:51;98287.69;;;12.51;100.00
48964;BME280;34776;48.180;16.420;2022-09-27T09:04:27;98276.56;;;12.46;100.00
48964;BME280;34776;48.180;16.420;2022-09-27T09:15:24;98263.06;;;12.79;100.00
48964;BME280;34776;48.180;16.420;2022-09-27T09:25:59;98268.19;;;12.92;100.00
48964;BME280;34776;48.180;16.420;2022-09-27T09:37:08;98264.28;;;12.96;100.00
48964;BME280;34776;48.180;16.420;2022-09-27T09:40:04;98262.63;;;13.05;100.00
48964;BME280;34776;48.180;16.420;2022-09-27T09:42:41;98273.19;;;13.16;100.00
48964;BME280;34776;48.180;16.420;2022-09-27T09:45:26;98261.56;;;13.17;100.00
48964;BME280;34776;48.180;16.420;2022-09-27T09:48:20;98264.97;;;13.19;100.00
48964;BME280;34776;48.180;16.420;2022-09-27T09:50:51;98270.72;;;13.25;100.00
48964;BME280;34776;48.180;16.420;2022-09-27T09:53:40;98259.25;;;13.03;100.00
48964;BME280;34776;48.180;16.420;2022-09-27T09:58:50;98263.41;;;13.17;100.00
48964;BME280;34776;48.180;16.420;2022-09-27T10:01:19;98262.22;;;13.31;100.00
48964;BME280;34776;48.180;16.420;2022-09-27T10:03:46;98256.41;;;13.56;100.00
48964;BME280;34776;48.180;16.420;2022-09-27T10:06:13;98257.97;;;13.69;100.00
48964;BME280;34776;48.180;16.420;2022-09-27T10:08:40;98250.13;;;13.77;100.00
48964;BME280;34776;48.180;16.420;2022-09-27T10:11:17;98238.22;;;14.00;100.00
48964;BME280;34776;48.180;16.420;2022-09-27T10:13:43;98237.41;;;14.10;100.00
48964;BME280;34776;48.180;16.420;2022-09-27T10:16:11;98232.88;;;14.30;100.00
48964;BME280;34776;48.180;16.420;2022-09-27T10:18:39;98230.38;;;14.28;98.87
48964;BME280;34776;48.180;16.420;2022-09-27T10:21:10;98230.50;;;14.46;100.00
48964;BME280;34776;48.180;16.420;2022-09-27T10:26:25;98231.63;;;14.63;98.10
48964;BME280;34776;48.180;16.420;2022-09-27T10:28:51;98237.41;;;14.68;97.94
48964;BME280;34776;48.180;16.420;2022-09-27T10:31:19;98238.06;;;14.90;98.97
48964;BME280;34776;48.180;16.420;2022-09-27T10:33:56;98241.25;;;15.03;98.71
48964;BME280;34776;48.180;16.420;2022-09-27T10:36:29;98244.34;;;15.08;96.00
48964;BME280;34776;48.180;16.420;2022-09-27T10:38:57;98237.28;;;15.07;94.53
48964;BME280;34776;48.180;16.420;2022-09-27T10:46:46;98216.31;;;15.40;94.94
48964;BME280;34776;48.180;16.420;2022-09-27T10:51:58;98221.31;;;15.53;94.67
48964;BME280;34776;48.180;16.420;2022-09-27T10:54:27;98227.50;;;15.81;94.73
48964;BME280;34776;48.180;16.420;2022-09-27T10:59:24;98228.38;;;15.99;93.55
48964;BME280;34776;48.180;16.420;2022-09-27T11:01:51;98234.84;;;16.07;90.81
48964;BME280;34776;48.180;16.420;2022-09-27T11:07:34;98221.81;;;16.12;88.97
48964;BME280;34776;48.180;16.420;2022-09-27T11:10:00;98230.09;;;16.00;85.60
48964;BME280;34776;48.180;16.420;2022-09-27T11:12:29;98232.34;;;15.95;85.76
48964;BME280;34776;48.180;16.420;2022-09-27T11:15:23;98212.63;;;15.96;79.61
48964;BME280;34776;48.180;16.420;2022-09-27T11:18:02;98209.78;;;16.16;84.16
48964;BME280;34776;48.180;16.420;2022-09-27T11:21:00;98209.25;;;16.30;80.73
48964;BME280;34776;48.180;16.420;2022-09-27T11:35:43;98203.41;;;16.35;80.99
48964;BME280;34776;48.180;16.420;2022-09-27T11:38:30;98201.06;;;16.32;79.41
48964;BME280;34776;48.180;16.420;2022-09-27T11:40:59;98206.72;;;16.29;79.44
48964;BME280;34776;48.180;16.420;2022-09-27T11:46:30;98218.75;;;16.07;77.99
48964;BME280;34776;48.180;16.420;2022-09-27T11:57:25;98204.66;;;15.59;77.98
48964;BME280;34776;48.180;16.420;2022-09-27T12:05:36;98219.81;;;15.13;71.92
48964;BME280;34776;48.180;16.420;2022-09-27T12:13:52;98209.78;;;15.52;78.08
48964;BME280;34776;48.180;16.420;2022-09-27T12:16:21;98204.19;;;15.63;76.54
48964;BME280;34776;48.180;16.420;2022-09-27T12:18:47;98212.56;;;15.60;76.39
48964;BME280;34776;48.180;16.420;2022-09-27T12:21:15;98208.78;;;15.81;77.34
48964;BME280;34776;48.180;16.420;2022-09-27T12:23:55;98213.44;;;15.79;71.95
48964;BME280;34776;48.180;16.420;2022-09-27T12:29:17;98224.41;;;16.03;75.69
48964;BME280;34776;48.180;16.420;2022-09-27T12:31:58;98225.00;;;15.97;75.04
48964;BME280;34776;48.180;16.420;2022-09-27T12:34:32;98215.50;;;15.85;73.85
48964;BME280;34776;48.180;16.420;2022-09-27T12:37:17;98217.81;;;15.80;71.00
48964;BME280;34776;48.180;16.420;2022-09-27T12:40:17;98210.09;;;15.95;73.75
48964;BME280;34776;48.180;16.420;2022-09-27T12:42:44;98204.78;;;16.21;74.96
48964;BME280;34776;48.180;16.420;2022-09-27T12:45:14;98215.16;;;16.34;73.90
48964;BME280;34776;48.180;16.420;2022-09-27T12:52:49;98218.16;;;16.13;70.85
48964;BME280;34776;48.180;16.420;2022-09-27T13:00:57;98219.97;;;16.30;70.95
48964;BME280;34776;48.180;16.420;2022-09-27T13:14:21;98205.72;;;16.12;66.75
48964;BME280;34776;48.180;16.420;2022-09-27T13:16:48;98208.56;;;16.10;68.55
48964;BME280;34776;48.180;16.420;2022-09-27T13:19:36;98210.72;;;16.07;67.55
48964;BME280;34776;48.180;16.420;2022-09-27T13:22:03;98219.28;;;15.92;67.85
48964;BME280;34776;48.180;16.420;2022-09-27T13:26:56;98223.84;;;15.82;68.04
48964;BME280;34776;48.180;16.420;2022-09-27T13:29:27;98216.38;;;15.86;67.72
48964;BME280;34776;48.180;16.420;2022-09-27T13:34:41;98230.38;;;15.70;66.91
48964;BME280;34776;48.180;16.420;2022-09-27T13:42:44;98235.63;;;15.61;66.09
48964;BME280;34776;48.180;16.420;2022-09-27T13:45:33;98246.34;;;15.61;64.83
48964;BME280;34776;48.180;16.420;2022-09-27T13:47:59;98244.00;;;15.58;66.20
48964;BME280;34776;48.180;16.420;2022-09-27T13:53:00;98241.84;;;15.62;65.40
48964;BME280;34776;48.180;16.420;2022-09-27T13:55:53;98256.81;;;15.55;63.90
48964;BME280;34776;48.180;16.420;2022-09-27T14:01:04;98255.97;;;15.54;65.07
48964;BME280;34776;48.180;16.420;2022-09-27T14:03:43;98253.47;;;15.43;63.80
48964;BME280;34776;48.180;16.420;2022-09-27T14:06:25;98255.88;;;15.46;65.08
48964;BME280;34776;48.180;16.420;2022-09-27T14:09:03;98261.25;;;15.64;64.70
48964;BME280;34776;48.180;16.420;2022-09-27T14:11:33;98257.75;;;15.63;63.62
48964;BME280;34776;48.180;16.420;2022-09-27T14:14:03;98255.38;;;15.60;64.17
48964;BME280;34776;48.180;16.420;2022-09-27T14:16:32;98259.03;;;15.59;62.73
48964;BME280;34776;48.180;16.420;2022-09-27T14:19:01;98270.75;;;15.58;61.04
48964;BME280;34776;48.180;16.420;2022-09-27T14:21:37;98271.03;;;15.55;58.58
48964;BME280;34776;48.180;16.420;2022-09-27T14:24:23;98267.56;;;15.45;59.15
48964;BME280;34776;48.180;16.420;2022-09-27T14:26:50;98272.91;;;15.45;60.66
48964;BME280;34776;48.180;16.420;2022-09-27T14:29:31;98271.28;;;15.34;60.51
48964;BME280;34776;48.180;16.420;2022-09-27T14:32:04;98278.47;;;15.34;59.04
48964;BME280;34776;48.180;16.420;2022-09-27T14:34:30;98284.53;;;15.26;59.03
48964;BME280;34776;48.180;16.420;2022-09-27T14:36:55;98277.66;;;15.14;59.06
48964;BME280;34776;48.180;16.420;2022-09-27T14:39:40;98289.13;;;15.06;58.66
48964;BME280;34776;48.180;16.420;2022-09-27T14:42:18;98290.66;;;14.99;56.48
48964;BME280;34776;48.180;16.420;2022-09-27T14:44:48;98289.44;;;14.93;58.50
48964;BME280;34776;48.180;16.420;2022-09-27T14:47:25;98292.13;;;14.84;57.56
48964;BME280;34776;48.180;16.420;2022-09-27T14:50:00;98291.97;;;14.85;58.01
48964;BME280;34776;48.180;16.420;2022-09-27T14:52:31;98291.72;;;14.78;58.33
48964;BME280;34776;48.180;16.420;2022-09-27T14:55:07;98284.78;;;14.76;59.06
48964;BME280;34776;48.180;16.420;2022-09-27T14:57:33;98289.44;;;14.74;59.07
48964;BME280;34776;48.180;16.420;2022-09-27T15:02:40;98284.22;;;14.82;59.64
48964;BME280;34776;48.180;16.420;2022-09-27T15:05:13;98292.53;;;14.79;58.87
48964;BME280;34776;48.180;16.420;2022-09-27T15:07:39;98284.66;;;14.87;59.21
48964;BME280;34776;48.180;16.420;2022-09-27T15:10:05;98292.94;;;14.84;59.04
48964;BME280;34776;48.180;16.420;2022-09-27T15:12:36;98290.00;;;14.77;59.87
48964;BME280;34776;48.180;16.420;2022-09-27T15:15:01;98292.84;;;14.66;60.25
48964;BME280;34776;48.180;16.420;2022-09-27T15:17:27;98290.88;;;14.58;60.17
48964;BME280;34776;48.180;16.420;2022-09-27T15:19:58;98292.00;;;14.56;60.21
48964;BME280;34776;48.180;16.420;2022-09-27T15:22:34;98289.56;;;14.53;60.17
48964;BME280;34776;48.180;16.420;2022-09-27T15:25:06;98293.84;;;14.55;61.17
48964;BME280;34776;48.180;16.420;2022-09-27T15:27:32;98292.00;;;14.56;61.32
48964;BME280;34776;48.180;16.420;2022-09-27T15:29:57;98295.09;;;14.61;60.88
48964;BME280;34776;48.180;16.420;2022-09-27T15:32:26;98296.94;;;14.70;61.55
48964;BME280;34776;48.180;16.420;2022-09-27T15:34:53;98303.81;;;14.63;60.94
48964;BME280;34776;48.180;16.420;2022-09-27T15:37:26;98309.72;;;14.57;61.23
48964;BME280;34776;48.180;16.420;2022-09-27T15:39:52;98313.34;;;14.46;61.01
48964;BME280;34776;48.180;16.420;2022-09-27T15:42:17;98311.38;;;14.38;61.32
48964;BME280;34776;48.180;16.420;2022-09-27T15:44:47;98316.16;;;14.35;61.78
48964;BME280;34776;48.180;16.420;2022-09-27T15:52:49;98318.97;;;14.33;62.03
48964;BME280;34776;48.180;16.420;2022-09-27T15:55:21;98333.16;;;14.34;62.59
48964;BME280;34776;48.180;16.420;2022-09-27T15:57:53;98327.97;;;14.32;62.35
48964;BME280;34776;48.180;16.420;2022-09-27T16:00:19;98321.22;;;14.28;61.75
48964;BME280;34776;48.180;16.420;2022-09-27T16:02:45;98324.88;;;14.27;61.51